createdAt,value
2022-08-31T00:01:48.978Z,100644.38
2022-08-31T00:06:53.825Z,100644.38
2022-08-31T00:11:56.884Z,100640.69
2022-08-31T00:17:00.630Z,100636.75
2022-08-31T00:22:04.922Z,100634.91
2022-08-31T00:27:07.937Z,100637.97
2022-08-31T00:32:10.718Z,100644.50
2022-08-31T00:37:15.006Z,100639.19
2022-08-31T00:42:17.789Z,100650.00
2022-08-31T00:47:20.541Z,100648.28
2022-08-31T00:52:28.451Z,100640.94
2022-08-31T00:57:39.569Z,100642.34
2022-08-31T01:02:45.129Z,100639.75
2022-08-31T01:07:50.692Z,100638.41
2022-08-31T01:12:55.639Z,100634.59
2022-08-31T01:18:07.343Z,100620.34
2022-08-31T01:23:16.449Z,100620.34
2022-08-31T01:28:19.249Z,100631.50
2022-08-31T01:33:21.863Z,100636.69
2022-08-31T01:38:26.609Z,100632.09
2022-08-31T01:43:31.265Z,100625.31
2022-08-31T01:48:34.121Z,100629.63
2022-08-31T01:53:39.211Z,100627.41
2022-08-31T01:58:45.080Z,100624.34
2022-08-31T02:04:13.886Z,100613.25
2022-08-31T02:09:17.998Z,100612.28
2022-08-31T02:14:21.729Z,100613.34
2022-08-31T02:19:24.472Z,100619.69
2022-08-31T02:24:28.513Z,100616.69
2022-08-31T02:29:32.265Z,100608.81
2022-08-31T02:34:35.232Z,100622.09
2022-08-31T02:39:39.385Z,100618.91
2022-08-31T02:44:42.145Z,100623.25
2022-08-31T02:49:44.909Z,100620.66
2022-08-31T02:54:48.971Z,100622.16
2022-08-31T02:59:51.653Z,100639.09
2022-08-31T03:04:54.484Z,100625.81
2022-08-31T03:09:58.694Z,100622.13
2022-08-31T03:15:01.602Z,100618.78
2022-08-31T03:20:06.111Z,100618.34
2022-08-31T03:25:10.990Z,100614.50
2022-08-31T03:30:18.973Z,100610.81
2022-08-31T03:35:36.204Z,100610.94
2022-08-31T03:40:40.711Z,100619.56
2022-08-31T03:45:45.501Z,100612.81
2022-08-31T03:50:48.657Z,100627.22
2022-08-31T03:56:03.768Z,100616.13
2022-08-31T04:01:12.389Z,100619.72
2022-08-31T04:06:34.292Z,100634.22
2022-08-31T04:11:58.352Z,100632.38
2022-08-31T04:17:35.996Z,100639.63
2022-08-31T04:22:58.633Z,100615.38
2022-08-31T04:28:10.588Z,100606.53
2022-08-31T04:33:16.699Z,100629.06
2022-08-31T04:38:19.480Z,100640.88
2022-08-31T04:43:24.236Z,100632.75
2022-08-31T04:48:27.032Z,100625.72
2022-08-31T04:53:30.146Z,100644.53
2022-08-31T04:58:35.860Z,100637.41
2022-08-31T05:03:40.035Z,100637.41
2022-08-31T05:08:42.993Z,100637.41
2022-08-31T05:13:50.415Z,100646.41
2022-08-31T05:18:54.111Z,100656.38
2022-08-31T05:23:58.566Z,100662.63
2022-08-31T05:29:06.334Z,100667.09
2022-08-31T05:34:12.461Z,100673.38
2022-08-31T05:39:15.353Z,100677.81
2022-08-31T05:44:21.287Z,100694.06
2022-08-31T05:49:27.919Z,100687.78
2022-08-31T05:54:33.775Z,100692.22
2022-08-31T05:59:39.664Z,100701.19
2022-08-31T06:04:43.426Z,100709.31
2022-08-31T06:09:47.205Z,100717.44
2022-08-31T06:14:55.436Z,100717.44
2022-08-31T06:19:58.247Z,100716.44
2022-08-31T06:25:01.042Z,100726.28
2022-08-31T06:30:07.223Z,100723.59
2022-08-31T06:35:10.926Z,100724.34
2022-08-31T06:40:30.610Z,100736.06
2022-08-31T06:45:53.121Z,100738.66
2022-08-31T06:51:09.789Z,100734.97
2022-08-31T06:56:20.670Z,100734.75
2022-08-31T07:01:43.628Z,100759.00
2022-08-31T07:06:48.907Z,100741.75
2022-08-31T07:11:53.585Z,100741.75
2022-08-31T07:16:59.935Z,100753.34
2022-08-31T07:22:06.529Z,100763.19
2022-08-31T07:27:18.232Z,100753.22
2022-08-31T07:32:29.847Z,100753.97
2022-08-31T07:37:50.699Z,100754.72
2022-08-31T07:42:57.408Z,100764.56
2022-08-31T07:48:01.728Z,100762.59
2022-08-31T07:53:16.477Z,100773.31
2022-08-31T07:58:28.248Z,100768.53
2022-08-31T08:03:32.694Z,100763.84
2022-08-31T08:09:21.495Z,100766.31
2022-08-31T08:14:31.823Z,100781.47
2022-08-31T08:19:46.352Z,100777.78
2022-08-31T08:24:50.494Z,100782.22
2022-08-31T08:30:15.479Z,100774.81
2022-08-31T08:35:21.304Z,100777.41
2022-08-31T08:40:32.002Z,100774.59
2022-08-31T08:45:36.652Z,100780.75
2022-08-31T08:50:43.155Z,100773.47
2022-08-31T08:55:53.172Z,100782.38
2022-08-31T09:00:57.099Z,100782.38
2022-08-31T09:06:07.089Z,100785.81
2022-08-31T09:11:20.142Z,100788.53
2022-08-31T09:16:40.813Z,100788.41
2022-08-31T09:21:48.849Z,100786.44
2022-08-31T09:27:00.160Z,100777.34
2022-08-31T09:32:16.295Z,100791.75
2022-08-31T09:37:23.559Z,100781.63
2022-08-31T09:42:31.546Z,100784.22
2022-08-31T09:47:45.818Z,100791.38
2022-08-31T09:53:07.259Z,100781.41
2022-08-31T09:58:11.073Z,100778.44
2022-08-31T10:03:20.751Z,100770.31
2022-08-31T10:08:43.188Z,100762.06
2022-08-31T10:13:57.279Z,100760.22
2022-08-31T10:19:04.609Z,100766.25
2022-08-31T10:24:20.887Z,100754.31
2022-08-31T10:29:32.942Z,100756.03
2022-08-31T10:34:59.303Z,100755.03
2022-08-31T10:40:07.244Z,100742.22
2022-08-31T10:45:18.673Z,100752.00
2022-08-31T10:50:29.278Z,100748.28
2022-08-31T10:55:39.380Z,100756.28
2022-08-31T11:00:51.019Z,100740.00
2022-08-31T11:06:01.381Z,100741.63
2022-08-31T11:11:11.601Z,100741.38
2022-08-31T11:16:32.737Z,100737.69
2022-08-31T11:21:52.123Z,100732.00
2022-08-31T11:27:06.370Z,100721.03
2022-08-31T11:32:19.966Z,100728.19
2022-08-31T11:37:52.147Z,100724.50
2022-08-31T11:43:01.338Z,100721.66
2022-08-31T11:48:06.873Z,100724.22
2022-08-31T11:53:25.310Z,100723.13
2022-08-31T11:58:33.744Z,100726.72
2022-08-31T12:03:52.325Z,100715.72
2022-08-31T12:09:09.962Z,100714.72
2022-08-31T12:14:22.676Z,100701.91
2022-08-31T12:19:59.037Z,100708.06
2022-08-31T12:25:15.753Z,100707.06
2022-08-31T12:30:22.789Z,100703.50
2022-08-31T12:35:27.235Z,100706.94
2022-08-31T12:40:32.994Z,100701.28
2022-08-31T12:45:59.777Z,100705.47
2022-08-31T12:51:12.651Z,100707.91
2022-08-31T12:56:25.977Z,100697.81
2022-08-31T13:01:31.037Z,100699.41
2022-08-31T13:06:36.395Z,100691.97
2022-08-31T13:11:42.568Z,100694.75
2022-08-31T13:16:49.327Z,100690.25
2022-08-31T13:21:56.094Z,100697.63
2022-08-31T13:27:11.737Z,100687.53
2022-08-31T13:32:32.228Z,100697.75
2022-08-31T13:37:40.536Z,100688.47
2022-08-31T13:42:46.778Z,100688.97
2022-08-31T13:47:57.716Z,100685.66
2022-08-31T13:53:25.824Z,100679.13
2022-08-31T13:58:30.023Z,100673.69
2022-08-31T14:03:46.633Z,100679.25
2022-08-31T14:08:50.927Z,100670.25
2022-08-31T14:13:53.670Z,100677.03
2022-08-31T14:18:58.019Z,100677.28
2022-08-31T14:24:04.559Z,100672.72
2022-08-31T14:29:10.177Z,100672.13
2022-08-31T14:34:35.990Z,100674.31
2022-08-31T14:39:41.908Z,100666.69
2022-08-31T14:44:48.334Z,100666.28
2022-08-31T14:49:52.971Z,100660.78
2022-08-31T14:55:02.715Z,100652.03
2022-08-31T15:00:08.000Z,100649.56
2022-08-31T15:05:12.799Z,100644.25
2022-08-31T15:10:16.776Z,100637.59
2022-08-31T15:15:21.032Z,100643.03
2022-08-31T15:20:25.475Z,100647.44
2022-08-31T15:25:28.788Z,100640.31
2022-08-31T15:30:33.688Z,100642.53
2022-08-31T15:35:41.786Z,100641.03
2022-08-31T15:40:44.743Z,100640.19
2022-08-31T15:45:47.806Z,100640.81
2022-08-31T15:51:00.514Z,100633.53
2022-08-31T15:56:06.363Z,100629.34
2022-08-31T16:01:14.026Z,100632.41
2022-08-31T16:06:20.005Z,100619.50
2022-08-31T16:11:25.147Z,100618.00
2022-08-31T16:16:30.990Z,100622.94
2022-08-31T16:21:39.694Z,100614.44
2022-08-31T16:26:44.191Z,100608.88
2022-08-31T16:31:47.202Z,100615.56
2022-08-31T16:36:52.936Z,100615.19
2022-08-31T16:41:56.109Z,100609.09
2022-08-31T16:46:59.849Z,100612.16
2022-08-31T16:52:05.956Z,100611.66
2022-08-31T16:57:08.698Z,100617.56
2022-08-31T17:02:13.225Z,100618.03
2022-08-31T17:07:19.570Z,100624.19
2022-08-31T17:12:26.651Z,100625.84
2022-08-31T17:17:30.611Z,100631.47
2022-08-31T17:22:37.177Z,100631.81
2022-08-31T17:27:40.240Z,100634.41
2022-08-31T17:32:45.016Z,100629.84
2022-08-31T17:37:50.661Z,100633.63
2022-08-31T17:42:57.949Z,100630.53
2022-08-31T17:48:02.511Z,100628.81
2022-08-31T17:53:06.568Z,100637.31
2022-08-31T17:58:09.443Z,100644.88
2022-08-31T18:03:12.369Z,100643.72
2022-08-31T18:08:16.553Z,100652.09
2022-08-31T18:13:20.343Z,100654.69
2022-08-31T18:18:27.069Z,100650.50
2022-08-31T18:23:31.099Z,100665.94
2022-08-31T18:28:33.957Z,100670.13
2022-08-31T18:33:37.956Z,100674.28
2022-08-31T18:38:42.132Z,100686.88
2022-08-31T18:43:58.760Z,100683.88
2022-08-31T18:49:12.079Z,100673.75
2022-08-31T18:54:17.156Z,100686.59
2022-08-31T18:59:21.255Z,100686.34
2022-08-31T19:04:24.004Z,100691.66
2022-08-31T19:09:28.625Z,100686.06
2022-08-31T19:14:34.875Z,100688.06
2022-08-31T19:19:38.992Z,100688.94
2022-08-31T19:24:43.495Z,100689.25
2022-08-31T19:29:46.241Z,100689.53
2022-08-31T19:34:49.713Z,100688.16
2022-08-31T19:39:53.827Z,100685.16
2022-08-31T19:50:20.115Z,100684.56
2022-08-31T19:55:24.215Z,100689.03
2022-08-31T20:00:29.693Z,100681.34
2022-08-31T20:05:32.954Z,100675.03
2022-08-31T20:10:46.958Z,100677.63
2022-08-31T20:15:50.939Z,100677.00
2022-08-31T20:20:55.017Z,100674.59
2022-08-31T20:25:59.278Z,100672.44
2022-08-31T20:31:07.015Z,100680.97
2022-08-31T20:36:19.068Z,100684.31
2022-08-31T20:41:23.528Z,100680.97
2022-08-31T20:46:44.137Z,100685.94
2022-08-31T20:51:47.368Z,100688.06
2022-08-31T20:56:51.751Z,100688.31
2022-08-31T21:01:59.397Z,100692.31
2022-08-31T21:07:02.918Z,100696.75
2022-08-31T21:12:07.789Z,100689.59
2022-08-31T21:17:11.230Z,100692.31
2022-08-31T21:22:17.418Z,100692.31
2022-08-31T21:27:23.659Z,100693.56
2022-08-31T21:32:26.549Z,100687.25
2022-08-31T21:37:29.191Z,100692.94
2022-08-31T21:42:33.854Z,100691.94
2022-08-31T21:47:36.676Z,100693.94
2022-08-31T21:52:39.521Z,100697.03
2022-08-31T21:57:44.013Z,100689.75
2022-08-31T22:02:46.875Z,100690.97
2022-08-31T22:07:49.902Z,100690.75
2022-08-31T22:12:53.965Z,100698.25
2022-08-31T22:18:25.927Z,100695.34
2022-08-31T22:23:22.019Z,100695.34
2022-08-31T22:28:27.546Z,100692.16
2022-08-31T22:33:30.474Z,100700.78
2022-08-31T22:38:34.723Z,100703.03
2022-08-31T22:43:39.513Z,100710.81
2022-08-31T22:48:42.243Z,100706.75
2022-08-31T22:53:47.904Z,100709.94
2022-08-31T22:58:52.669Z,100705.88
2022-08-31T23:03:57.185Z,100711.28
2022-08-31T23:09:00.888Z,100704.16
2022-08-31T23:14:08.942Z,100709.28
2022-08-31T23:19:14.310Z,100704.50
2022-08-31T23:24:19.193Z,100704.00
2022-08-31T23:29:23.272Z,100691.56
2022-08-31T23:34:26.192Z,100691.28
2022-08-31T23:39:29.642Z,100697.94
2022-08-31T23:44:36.061Z,100693.00
2022-08-31T23:49:40.418Z,100691.75
2022-08-31T23:54:43.126Z,100686.50
2022-08-31T23:59:52.680Z,100686.59
